sensor_id;sensor_type;location;lat;lon;timestamp;temperature;humidity
25410;DHT22;13339;50.840;4.346;2023-03-01T00:01:24;4.20;99.90
25410;DHT22;13339;50.840;4.346;2023-03-01T00:03:51;4.00;99.90
25410;DHT22;13339;50.840;4.346;2023-03-01T00:06:17;4.00;99.90
25410;DHT22;13339;50.840;4.346;2023-03-01T00:08:43;4.00;99.90
25410;DHT22;13339;50.840;4.346;2023-03-01T00:11:10;4.00;99.90
25410;DHT22;13339;50.840;4.346;2023-03-01T00:13:37;4.00;99.90
25410;DHT22;13339;50.840;4.346;2023-03-01T00:16:04;4.00;99.90
25410;DHT22;13339;50.840;4.346;2023-03-01T00:18:30;4.20;99.90
25410;DHT22;13339;50.840;4.346;2023-03-01T00:20:56;4.00;99.90
25410;DHT22;13339;50.840;4.346;2023-03-01T00:23:22;3.90;99.90
25410;DHT22;13339;50.840;4.346;2023-03-01T00:25:48;3.90;99.90
25410;DHT22;13339;50.840;4.346;2023-03-01T00:28:14;4.20;99.90
25410;DHT22;13339;50.840;4.346;2023-03-01T00:30:40;4.40;99.90
25410;DHT22;13339;50.840;4.346;2023-03-01T00:33:05;4.50;99.90
25410;DHT22;13339;50.840;4.346;2023-03-01T00:35:34;4.30;99.90
25410;DHT22;13339;50.840;4.346;2023-03-01T00:38:00;4.10;99.90
25410;DHT22;13339;50.840;4.346;2023-03-01T00:40:29;4.00;99.90
25410;DHT22;13339;50.840;4.346;2023-03-01T00:42:55;4.10;99.90
25410;DHT22;13339;50.840;4.346;2023-03-01T00:45:21;4.10;99.90
25410;DHT22;13339;50.840;4.346;2023-03-01T00:47:48;4.20;99.90
25410;DHT22;13339;50.840;4.346;2023-03-01T00:50:14;4.20;99.90
25410;DHT22;13339;50.840;4.346;2023-03-01T00:52:40;4.00;99.90
25410;DHT22;13339;50.840;4.346;2023-03-01T00:55:06;3.90;99.90
25410;DHT22;13339;50.840;4.346;2023-03-01T00:57:32;3.80;99.90
25410;DHT22;13339;50.840;4.346;2023-03-01T00:59:58;3.80;99.90
25410;DHT22;13339;50.840;4.346;2023-03-01T01:02:24;3.70;99.90
25410;DHT22;13339;50.840;4.346;2023-03-01T01:04:51;3.60;99.90
25410;DHT22;13339;50.840;4.346;2023-03-01T01:07:17;3.60;99.90
25410;DHT22;13339;50.840;4.346;2023-03-01T01:09:43;3.70;99.90
25410;DHT22;13339;50.840;4.346;2023-03-01T01:12:09;3.70;99.90
25410;DHT22;13339;50.840;4.346;2023-03-01T01:14:35;3.50;99.90
25410;DHT22;13339;50.840;4.346;2023-03-01T01:17:00;3.50;99.90
25410;DHT22;13339;50.840;4.346;2023-03-01T01:19:26;3.50;99.90
25410;DHT22;13339;50.840;4.346;2023-03-01T01:21:52;3.60;99.90
25410;DHT22;13339;50.840;4.346;2023-03-01T01:24:18;3.70;99.90
25410;DHT22;13339;50.840;4.346;2023-03-01T01:26:44;3.80;99.90
25410;DHT22;13339;50.840;4.346;2023-03-01T01:29:11;3.80;99.90
25410;DHT22;13339;50.840;4.346;2023-03-01T01:31:38;3.80;99.90
25410;DHT22;13339;50.840;4.346;2023-03-01T01:34:08;3.80;99.90
25410;DHT22;13339;50.840;4.346;2023-03-01T01:36:34;3.90;99.90
25410;DHT22;13339;50.840;4.346;2023-03-01T01:39:00;3.90;99.90
25410;DHT22;13339;50.840;4.346;2023-03-01T01:41:28;3.70;99.90
25410;DHT22;13339;50.840;4.346;2023-03-01T01:47:00;3.60;99.90
25410;DHT22;13339;50.840;4.346;2023-03-01T01:49:36;3.60;99.90
25410;DHT22;13339;50.840;4.346;2023-03-01T01:52:14;3.50;99.90
25410;DHT22;13339;50.840;4.346;2023-03-01T01:54:57;3.50;99.90
25410;DHT22;13339;50.840;4.346;2023-03-01T01:57:32;3.50;99.90
25410;DHT22;13339;50.840;4.346;2023-03-01T02:00:05;3.40;99.90
25410;DHT22;13339;50.840;4.346;2023-03-01T02:02:31;3.50;99.90
25410;DHT22;13339;50.840;4.346;2023-03-01T02:05:06;3.50;99.90
25410;DHT22;13339;50.840;4.346;2023-03-01T02:07:38;3.50;99.90
25410;DHT22;13339;50.840;4.346;2023-03-01T02:10:05;3.30;99.90
25410;DHT22;13339;50.840;4.346;2023-03-01T02:12:31;3.30;99.90
25410;DHT22;13339;50.840;4.346;2023-03-01T02:14:57;3.10;99.90
25410;DHT22;13339;50.840;4.346;2023-03-01T02:17:23;3.30;99.90
25410;DHT22;13339;50.840;4.346;2023-03-01T02:22:24;3.40;99.90
25410;DHT22;13339;50.840;4.346;2023-03-01T02:25:04;3.30;99.90
25410;DHT22;13339;50.840;4.346;2023-03-01T02:27:56;3.40;99.90
25410;DHT22;13339;50.840;4.346;2023-03-01T02:30:24;3.60;99.90
25410;DHT22;13339;50.840;4.346;2023-03-01T02:32:53;3.70;99.90
25410;DHT22;13339;50.840;4.346;2023-03-01T02:35:19;3.90;99.90
25410;DHT22;13339;50.840;4.346;2023-03-01T02:37:46;3.80;99.90
25410;DHT22;13339;50.840;4.346;2023-03-01T02:40:17;3.90;99.90
25410;DHT22;13339;50.840;4.346;2023-03-01T02:42:53;4.00;99.90
25410;DHT22;13339;50.840;4.346;2023-03-01T02:45:20;4.10;99.90
25410;DHT22;13339;50.840;4.346;2023-03-01T02:47:45;4.00;99.90
25410;DHT22;13339;50.840;4.346;2023-03-01T02:50:23;3.60;99.90
25410;DHT22;13339;50.840;4.346;2023-03-01T02:53:01;3.20;99.90
25410;DHT22;13339;50.840;4.346;2023-03-01T02:55:30;3.10;99.90
25410;DHT22;13339;50.840;4.346;2023-03-01T02:57:56;3.00;99.90
25410;DHT22;13339;50.840;4.346;2023-03-01T03:00:30;3.10;99.90
25410;DHT22;13339;50.840;4.346;2023-03-01T03:02:58;3.20;99.90
25410;DHT22;13339;50.840;4.346;2023-03-01T03:05:27;3.30;99.90
25410;DHT22;13339;50.840;4.346;2023-03-01T03:07:54;3.30;99.90
25410;DHT22;13339;50.840;4.346;2023-03-01T03:10:40;3.30;99.90
25410;DHT22;13339;50.840;4.346;2023-03-01T03:13:17;3.40;99.90
25410;DHT22;13339;50.840;4.346;2023-03-01T03:15:43;3.50;99.90
25410;DHT22;13339;50.840;4.346;2023-03-01T03:18:15;3.50;99.90
25410;DHT22;13339;50.840;4.346;2023-03-01T03:20:43;3.40;99.90
25410;DHT22;13339;50.840;4.346;2023-03-01T03:23:09;3.20;99.90
25410;DHT22;13339;50.840;4.346;2023-03-01T03:25:34;3.10;99.90
25410;DHT22;13339;50.840;4.346;2023-03-01T03:28:04;3.10;99.90
25410;DHT22;13339;50.840;4.346;2023-03-01T03:30:36;3.10;99.90
25410;DHT22;13339;50.840;4.346;2023-03-01T03:33:04;3.20;99.90
25410;DHT22;13339;50.840;4.346;2023-03-01T03:35:48;3.20;99.90
25410;DHT22;13339;50.840;4.346;2023-03-01T03:38:15;3.20;99.90
25410;DHT22;13339;50.840;4.346;2023-03-01T03:40:46;3.30;99.90
25410;DHT22;13339;50.840;4.346;2023-03-01T03:43:23;3.40;99.90
25410;DHT22;13339;50.840;4.346;2023-03-01T03:45:50;3.40;99.90
25410;DHT22;13339;50.840;4.346;2023-03-01T03:48:17;3.40;99.90
25410;DHT22;13339;50.840;4.346;2023-03-01T03:50:48;3.30;99.90
25410;DHT22;13339;50.840;4.346;2023-03-01T03:53:15;3.30;99.90
25410;DHT22;13339;50.840;4.346;2023-03-01T03:55:40;3.40;99.90
25410;DHT22;13339;50.840;4.346;2023-03-01T03:58:08;3.40;99.90
25410;DHT22;13339;50.840;4.346;2023-03-01T04:00:37;3.10;99.90
25410;DHT22;13339;50.840;4.346;2023-03-01T04:03:03;2.90;99.90
25410;DHT22;13339;50.840;4.346;2023-03-01T04:05:29;2.80;99.90
25410;DHT22;13339;50.840;4.346;2023-03-01T04:07:55;2.70;99.90
25410;DHT22;13339;50.840;4.346;2023-03-01T04:10:32;2.70;99.90
25410;DHT22;13339;50.840;4.346;2023-03-01T04:12:58;2.80;99.90
25410;DHT22;13339;50.840;4.346;2023-03-01T04:15:25;2.70;99.90
25410;DHT22;13339;50.840;4.346;2023-03-01T04:17:53;2.70;99.90
25410;DHT22;13339;50.840;4.346;2023-03-01T04:20:21;2.60;99.90
25410;DHT22;13339;50.840;4.346;2023-03-01T04:28:04;2.70;99.90
25410;DHT22;13339;50.840;4.346;2023-03-01T04:30:30;2.60;99.90
25410;DHT22;13339;50.840;4.346;2023-03-01T04:33:01;2.40;99.90
25410;DHT22;13339;50.840;4.346;2023-03-01T04:35:27;2.20;99.90
25410;DHT22;13339;50.840;4.346;2023-03-01T04:37:53;2.30;99.90
25410;DHT22;13339;50.840;4.346;2023-03-01T04:40:18;2.30;99.90
25410;DHT22;13339;50.840;4.346;2023-03-01T04:42:44;2.30;99.90
25410;DHT22;13339;50.840;4.346;2023-03-01T04:45:10;2.30;99.90
25410;DHT22;13339;50.840;4.346;2023-03-01T04:47:42;2.40;99.90
25410;DHT22;13339;50.840;4.346;2023-03-01T04:50:11;2.40;99.90
25410;DHT22;13339;50.840;4.346;2023-03-01T04:52:37;2.60;99.90
25410;DHT22;13339;50.840;4.346;2023-03-01T04:55:03;2.40;99.90
25410;DHT22;13339;50.840;4.346;2023-03-01T04:57:30;2.30;99.90
25410;DHT22;13339;50.840;4.346;2023-03-01T04:59:55;2.40;99.90
25410;DHT22;13339;50.840;4.346;2023-03-01T05:02:21;2.40;99.90
25410;DHT22;13339;50.840;4.346;2023-03-01T05:04:46;2.50;99.90
25410;DHT22;13339;50.840;4.346;2023-03-01T05:07:12;2.30;99.90
25410;DHT22;13339;50.840;4.346;2023-03-01T05:09:38;2.20;99.90
25410;DHT22;13339;50.840;4.346;2023-03-01T05:12:04;2.20;99.90
25410;DHT22;13339;50.840;4.346;2023-03-01T05:14:30;2.10;99.90
25410;DHT22;13339;50.840;4.346;2023-03-01T05:16:55;2.00;99.90
25410;DHT22;13339;50.840;4.346;2023-03-01T05:19:29;2.10;99.90
25410;DHT22;13339;50.840;4.346;2023-03-01T05:21:56;2.10;99.90
25410;DHT22;13339;50.840;4.346;2023-03-01T05:24:31;1.80;99.90
25410;DHT22;13339;50.840;4.346;2023-03-01T05:26:57;1.90;99.90
25410;DHT22;13339;50.840;4.346;2023-03-01T05:29:24;2.10;99.90
25410;DHT22;13339;50.840;4.346;2023-03-01T05:31:54;2.00;99.90
25410;DHT22;13339;50.840;4.346;2023-03-01T05:34:25;1.90;99.90
25410;DHT22;13339;50.840;4.346;2023-03-01T05:36:52;1.90;99.90
25410;DHT22;13339;50.840;4.346;2023-03-01T05:39:19;2.10;99.90
25410;DHT22;13339;50.840;4.346;2023-03-01T05:41:46;2.10;99.90
25410;DHT22;13339;50.840;4.346;2023-03-01T05:44:12;2.00;99.90
25410;DHT22;13339;50.840;4.346;2023-03-01T05:46:38;2.00;99.90
25410;DHT22;13339;50.840;4.346;2023-03-01T05:49:03;2.00;99.90
25410;DHT22;13339;50.840;4.346;2023-03-01T05:51:29;2.00;99.90
25410;DHT22;13339;50.840;4.346;2023-03-01T05:53:55;2.10;99.90
25410;DHT22;13339;50.840;4.346;2023-03-01T05:56:20;2.20;99.90
25410;DHT22;13339;50.840;4.346;2023-03-01T05:58:48;2.20;99.90
25410;DHT22;13339;50.840;4.346;2023-03-01T06:01:17;2.50;99.90
25410;DHT22;13339;50.840;4.346;2023-03-01T06:03:43;2.50;99.90
25410;DHT22;13339;50.840;4.346;2023-03-01T06:06:08;2.60;99.90
25410;DHT22;13339;50.840;4.346;2023-03-01T06:08:34;2.70;99.90
25410;DHT22;13339;50.840;4.346;2023-03-01T06:10:59;2.70;99.90
25410;DHT22;13339;50.840;4.346;2023-03-01T06:13:25;2.80;99.90
25410;DHT22;13339;50.840;4.346;2023-03-01T06:15:51;2.70;99.90
25410;DHT22;13339;50.840;4.346;2023-03-01T06:18:17;2.50;99.90
25410;DHT22;13339;50.840;4.346;2023-03-01T06:20:42;2.40;99.90
25410;DHT22;13339;50.840;4.346;2023-03-01T06:23:08;2.40;99.90
25410;DHT22;13339;50.840;4.346;2023-03-01T06:25:34;2.30;99.90
25410;DHT22;13339;50.840;4.346;2023-03-01T06:28:00;2.30;99.90
25410;DHT22;13339;50.840;4.346;2023-03-01T06:30:26;2.20;99.90
25410;DHT22;13339;50.840;4.346;2023-03-01T06:32:52;2.10;99.90
25410;DHT22;13339;50.840;4.346;2023-03-01T06:35:19;2.00;99.90
25410;DHT22;13339;50.840;4.346;2023-03-01T06:37:47;2.00;99.90
25410;DHT22;13339;50.840;4.346;2023-03-01T06:40:13;2.00;99.90
25410;DHT22;13339;50.840;4.346;2023-03-01T06:42:40;2.00;99.90
25410;DHT22;13339;50.840;4.346;2023-03-01T06:45:07;2.10;99.90
25410;DHT22;13339;50.840;4.346;2023-03-01T06:47:33;2.10;99.90
25410;DHT22;13339;50.840;4.346;2023-03-01T06:49:59;2.10;99.90
25410;DHT22;13339;50.840;4.346;2023-03-01T06:52:25;2.10;99.90
25410;DHT22;13339;50.840;4.346;2023-03-01T06:54:51;2.10;99.90
25410;DHT22;13339;50.840;4.346;2023-03-01T06:57:17;2.20;99.90
25410;DHT22;13339;50.840;4.346;2023-03-01T06:59:43;2.10;99.90
25410;DHT22;13339;50.840;4.346;2023-03-01T07:02:12;2.30;99.90
25410;DHT22;13339;50.840;4.346;2023-03-01T07:04:38;2.50;99.90
25410;DHT22;13339;50.840;4.346;2023-03-01T07:07:04;2.50;99.90
25410;DHT22;13339;50.840;4.346;2023-03-01T07:09:30;2.70;99.90
25410;DHT22;13339;50.840;4.346;2023-03-01T07:11:56;2.60;99.90
25410;DHT22;13339;50.840;4.346;2023-03-01T07:14:22;2.70;99.90
25410;DHT22;13339;50.840;4.346;2023-03-01T07:16:49;2.60;99.90
25410;DHT22;13339;50.840;4.346;2023-03-01T07:19:15;2.40;99.90
25410;DHT22;13339;50.840;4.346;2023-03-01T07:21:41;2.30;99.90
25410;DHT22;13339;50.840;4.346;2023-03-01T07:24:07;2.20;99.90
25410;DHT22;13339;50.840;4.346;2023-03-01T07:26:33;2.10;99.90
25410;DHT22;13339;50.840;4.346;2023-03-01T07:29:00;2.10;99.90
25410;DHT22;13339;50.840;4.346;2023-03-01T07:31:26;2.00;99.90
25410;DHT22;13339;50.840;4.346;2023-03-01T07:33:54;1.90;99.90
25410;DHT22;13339;50.840;4.346;2023-03-01T07:36:19;1.90;99.90
25410;DHT22;13339;50.840;4.346;2023-03-01T07:38:45;1.80;99.90
25410;DHT22;13339;50.840;4.346;2023-03-01T07:41:10;1.80;99.90
25410;DHT22;13339;50.840;4.346;2023-03-01T07:43:36;1.90;99.90
25410;DHT22;13339;50.840;4.346;2023-03-01T07:46:02;2.00;99.90
25410;DHT22;13339;50.840;4.346;2023-03-01T07:48:29;1.90;99.90
25410;DHT22;13339;50.840;4.346;2023-03-01T07:50:58;1.90;99.90
25410;DHT22;13339;50.840;4.346;2023-03-01T07:53:24;2.00;99.90
25410;DHT22;13339;50.840;4.346;2023-03-01T07:55:49;2.30;99.90
25410;DHT22;13339;50.840;4.346;2023-03-01T07:58:15;2.60;99.90
25410;DHT22;13339;50.840;4.346;2023-03-01T08:00:40;2.60;99.90
25410;DHT22;13339;50.840;4.346;2023-03-01T08:03:06;2.80;99.90
25410;DHT22;13339;50.840;4.346;2023-03-01T08:05:32;3.20;99.90
25410;DHT22;13339;50.840;4.346;2023-03-01T08:07:57;3.40;99.90
25410;DHT22;13339;50.840;4.346;2023-03-01T08:10:23;3.70;99.90
25410;DHT22;13339;50.840;4.346;2023-03-01T08:12:51;4.10;99.90
25410;DHT22;13339;50.840;4.346;2023-03-01T08:15:17;4.30;99.90
25410;DHT22;13339;50.840;4.346;2023-03-01T08:17:44;4.30;99.90
25410;DHT22;13339;50.840;4.346;2023-03-01T08:20:10;4.30;99.90
25410;DHT22;13339;50.840;4.346;2023-03-01T08:22:37;4.30;99.90
25410;DHT22;13339;50.840;4.346;2023-03-01T08:25:03;4.10;99.90
25410;DHT22;13339;50.840;4.346;2023-03-01T08:27:29;4.00;99.90
25410;DHT22;13339;50.840;4.346;2023-03-01T08:29:54;4.00;99.90
25410;DHT22;13339;50.840;4.346;2023-03-01T08:32:20;3.90;99.90
25410;DHT22;13339;50.840;4.346;2023-03-01T08:34:48;3.80;99.90
25410;DHT22;13339;50.840;4.346;2023-03-01T08:37:14;3.80;99.90
25410;DHT22;13339;50.840;4.346;2023-03-01T08:39:40;3.60;99.90
25410;DHT22;13339;50.840;4.346;2023-03-01T08:42:05;3.50;99.90
25410;DHT22;13339;50.840;4.346;2023-03-01T08:44:31;3.20;99.90
25410;DHT22;13339;50.840;4.346;2023-03-01T08:46:56;3.00;99.90
25410;DHT22;13339;50.840;4.346;2023-03-01T08:49:23;2.90;99.90
25410;DHT22;13339;50.840;4.346;2023-03-01T08:51:49;3.10;99.90
25410;DHT22;13339;50.840;4.346;2023-03-01T08:54:17;2.90;99.90
25410;DHT22;13339;50.840;4.346;2023-03-01T08:56:43;2.90;99.90
25410;DHT22;13339;50.840;4.346;2023-03-01T08:59:11;3.10;99.90
25410;DHT22;13339;50.840;4.346;2023-03-01T09:01:37;3.20;99.90
25410;DHT22;13339;50.840;4.346;2023-03-01T09:04:03;3.10;99.90
25410;DHT22;13339;50.840;4.346;2023-03-01T09:06:32;3.10;99.90
25410;DHT22;13339;50.840;4.346;2023-03-01T09:09:02;3.30;99.90
25410;DHT22;13339;50.840;4.346;2023-03-01T09:11:28;3.50;99.90
25410;DHT22;13339;50.840;4.346;2023-03-01T09:13:54;3.50;99.90
25410;DHT22;13339;50.840;4.346;2023-03-01T09:16:21;3.50;99.90
25410;DHT22;13339;50.840;4.346;2023-03-01T09:18:52;3.70;99.90
25410;DHT22;13339;50.840;4.346;2023-03-01T09:21:19;3.80;99.90
25410;DHT22;13339;50.840;4.346;2023-03-01T09:23:47;3.90;99.90
25410;DHT22;13339;50.840;4.346;2023-03-01T09:26:19;3.80;99.90
25410;DHT22;13339;50.840;4.346;2023-03-01T09:28:45;4.00;99.90
25410;DHT22;13339;50.840;4.346;2023-03-01T09:31:12;4.10;99.90
25410;DHT22;13339;50.840;4.346;2023-03-01T09:33:39;4.20;99.90
25410;DHT22;13339;50.840;4.346;2023-03-01T09:36:07;4.40;99.90
25410;DHT22;13339;50.840;4.346;2023-03-01T09:38:33;4.60;99.90
25410;DHT22;13339;50.840;4.346;2023-03-01T09:41:00;4.70;99.90
25410;DHT22;13339;50.840;4.346;2023-03-01T09:43:29;5.00;99.90
25410;DHT22;13339;50.840;4.346;2023-03-01T09:45:59;5.20;99.90
25410;DHT22;13339;50.840;4.346;2023-03-01T09:48:27;5.10;99.90
25410;DHT22;13339;50.840;4.346;2023-03-01T09:50:55;4.90;99.90
25410;DHT22;13339;50.840;4.346;2023-03-01T09:53:25;5.00;99.90
25410;DHT22;13339;50.840;4.346;2023-03-01T09:56:00;4.60;99.90
25410;DHT22;13339;50.840;4.346;2023-03-01T09:58:41;4.60;99.90
25410;DHT22;13339;50.840;4.346;2023-03-01T10:01:44;4.60;99.90
25410;DHT22;13339;50.840;4.346;2023-03-01T10:09:45;5.30;99.90
25410;DHT22;13339;50.840;4.346;2023-03-01T10:12:18;5.10;99.90
25410;DHT22;13339;50.840;4.346;2023-03-01T10:15:05;5.20;99.90
25410;DHT22;13339;50.840;4.346;2023-03-01T10:17:40;5.00;99.90
25410;DHT22;13339;50.840;4.346;2023-03-01T10:20:20;5.10;99.90
25410;DHT22;13339;50.840;4.346;2023-03-01T10:22:46;5.20;99.90
25410;DHT22;13339;50.840;4.346;2023-03-01T10:28:27;5.20;99.90
25410;DHT22;13339;50.840;4.346;2023-03-01T10:30:57;5.60;99.90
25410;DHT22;13339;50.840;4.346;2023-03-01T10:33:29;5.70;99.90
25410;DHT22;13339;50.840;4.346;2023-03-01T10:35:55;5.90;99.90
25410;DHT22;13339;50.840;4.346;2023-03-01T10:38:21;5.90;99.90
25410;DHT22;13339;50.840;4.346;2023-03-01T10:40:56;5.70;99.90
25410;DHT22;13339;50.840;4.346;2023-03-01T10:43:40;5.60;99.90
25410;DHT22;13339;50.840;4.346;2023-03-01T10:46:29;5.70;99.90
25410;DHT22;13339;50.840;4.346;2023-03-01T10:51:40;5.60;99.90
25410;DHT22;13339;50.840;4.346;2023-03-01T10:54:29;5.70;99.90
25410;DHT22;13339;50.840;4.346;2023-03-01T10:57:00;5.70;99.90
25410;DHT22;13339;50.840;4.346;2023-03-01T10:59:31;5.80;99.90
25410;DHT22;13339;50.840;4.346;2023-03-01T11:04:35;6.20;99.90
25410;DHT22;13339;50.840;4.346;2023-03-01T11:07:02;6.50;99.90
25410;DHT22;13339;50.840;4.346;2023-03-01T11:09:32;6.70;99.90
25410;DHT22;13339;50.840;4.346;2023-03-01T11:12:04;6.10;99.90
25410;DHT22;13339;50.840;4.346;2023-03-01T11:14:36;6.10;99.90
25410;DHT22;13339;50.840;4.346;2023-03-01T11:19:28;6.30;99.90
25410;DHT22;13339;50.840;4.346;2023-03-01T11:24:39;6.60;99.90
25410;DHT22;13339;50.840;4.346;2023-03-01T11:30:05;6.60;99.90
25410;DHT22;13339;50.840;4.346;2023-03-01T11:32:52;6.90;99.90
25410;DHT22;13339;50.840;4.346;2023-03-01T11:35:22;6.90;99.90
25410;DHT22;13339;50.840;4.346;2023-03-01T11:54:42;7.00;99.90
25410;DHT22;13339;50.840;4.346;2023-03-01T12:00:31;7.20;99.90
25410;DHT22;13339;50.840;4.346;2023-03-01T12:03:30;7.30;99.90
25410;DHT22;13339;50.840;4.346;2023-03-01T12:06:10;7.30;99.90
25410;DHT22;13339;50.840;4.346;2023-03-01T12:08:49;7.40;99.90
25410;DHT22;13339;50.840;4.346;2023-03-01T12:20:02;7.40;99.90
25410;DHT22;13339;50.840;4.346;2023-03-01T12:22:44;7.70;99.90
25410;DHT22;13339;50.840;4.346;2023-03-01T12:35:47;8.40;99.90
25410;DHT22;13339;50.840;4.346;2023-03-01T12:38:33;8.50;99.90
25410;DHT22;13339;50.840;4.346;2023-03-01T12:43:55;8.30;99.90
25410;DHT22;13339;50.840;4.346;2023-03-01T12:49:13;8.00;99.90
25410;DHT22;13339;50.840;4.346;2023-03-01T12:51:41;8.10;99.90
25410;DHT22;13339;50.840;4.346;2023-03-01T12:54:26;8.20;99.90
25410;DHT22;13339;50.840;4.346;2023-03-01T12:56:52;8.20;99.90
25410;DHT22;13339;50.840;4.346;2023-03-01T12:59:39;8.00;99.90
25410;DHT22;13339;50.840;4.346;2023-03-01T13:02:20;7.80;99.90
25410;DHT22;13339;50.840;4.346;2023-03-01T13:07:39;8.20;99.90
25410;DHT22;13339;50.840;4.346;2023-03-01T13:13:25;8.40;99.90
25410;DHT22;13339;50.840;4.346;2023-03-01T13:15:51;8.30;99.90
25410;DHT22;13339;50.840;4.346;2023-03-01T13:20:53;8.20;99.90
25410;DHT22;13339;50.840;4.346;2023-03-01T13:31:01;7.70;99.90
25410;DHT22;13339;50.840;4.346;2023-03-01T13:35:56;7.90;99.90
25410;DHT22;13339;50.840;4.346;2023-03-01T13:38:47;8.10;99.90
25410;DHT22;13339;50.840;4.346;2023-03-01T13:41:47;8.20;99.90
25410;DHT22;13339;50.840;4.346;2023-03-01T13:44:00;8.30;99.90
25410;DHT22;13339;50.840;4.346;2023-03-01T13:46:26;8.30;99.90
25410;DHT22;13339;50.840;4.346;2023-03-01T13:48:55;8.10;99.90
25410;DHT22;13339;50.840;4.346;2023-03-01T13:51:25;8.00;99.90
25410;DHT22;13339;50.840;4.346;2023-03-01T13:53:52;8.00;99.90
25410;DHT22;13339;50.840;4.346;2023-03-01T13:56:28;7.80;99.90
25410;DHT22;13339;50.840;4.346;2023-03-01T13:59:17;7.80;99.90
25410;DHT22;13339;50.840;4.346;2023-03-01T14:01:43;7.90;99.90
25410;DHT22;13339;50.840;4.346;2023-03-01T14:06:48;8.30;99.90
25410;DHT22;13339;50.840;4.346;2023-03-01T14:09:22;8.30;99.90
25410;DHT22;13339;50.840;4.346;2023-03-01T14:14:34;8.00;99.90
25410;DHT22;13339;50.840;4.346;2023-03-01T14:17:29;7.80;99.90
25410;DHT22;13339;50.840;4.346;2023-03-01T14:20:03;7.90;99.90
25410;DHT22;13339;50.840;4.346;2023-03-01T14:22:34;8.00;99.90
25410;DHT22;13339;50.840;4.346;2023-03-01T14:25:03;8.00;99.90
25410;DHT22;13339;50.840;4.346;2023-03-01T14:27:38;8.00;99.90
25410;DHT22;13339;50.840;4.346;2023-03-01T14:30:31;8.20;99.90
25410;DHT22;13339;50.840;4.346;2023-03-01T14:33:00;8.50;99.90
25410;DHT22;13339;50.840;4.346;2023-03-01T14:35:28;8.60;99.90
25410;DHT22;13339;50.840;4.346;2023-03-01T14:37:54;8.60;99.90
25410;DHT22;13339;50.840;4.346;2023-03-01T14:40:32;8.80;99.90
25410;DHT22;13339;50.840;4.346;2023-03-01T14:43:00;8.80;99.90
25410;DHT22;13339;50.840;4.346;2023-03-01T14:45:28;8.50;99.90
25410;DHT22;13339;50.840;4.346;2023-03-01T14:47:55;8.50;99.90
25410;DHT22;13339;50.840;4.346;2023-03-01T14:50:27;8.40;99.90
25410;DHT22;13339;50.840;4.346;2023-03-01T14:52:59;8.20;99.90
25410;DHT22;13339;50.840;4.346;2023-03-01T14:57:52;8.10;99.90
25410;DHT22;13339;50.840;4.346;2023-03-01T15:00:24;8.30;99.90
25410;DHT22;13339;50.840;4.346;2023-03-01T15:02:52;8.60;99.90
25410;DHT22;13339;50.840;4.346;2023-03-01T15:05:24;8.90;99.90
25410;DHT22;13339;50.840;4.346;2023-03-01T15:07:51;9.00;99.90
25410;DHT22;13339;50.840;4.346;2023-03-01T15:10:26;8.90;99.90
25410;DHT22;13339;50.840;4.346;2023-03-01T15:12:52;8.70;99.90
25410;DHT22;13339;50.840;4.346;2023-03-01T15:15:36;8.60;99.90
25410;DHT22;13339;50.840;4.346;2023-03-01T15:18:11;8.60;99.90
25410;DHT22;13339;50.840;4.346;2023-03-01T15:20:38;8.60;99.90
25410;DHT22;13339;50.840;4.346;2023-03-01T15:23:04;8.60;99.90
25410;DHT22;13339;50.840;4.346;2023-03-01T15:25:32;8.60;99.90
25410;DHT22;13339;50.840;4.346;2023-03-01T15:27:59;8.70;99.90
25410;DHT22;13339;50.840;4.346;2023-03-01T15:30:31;8.50;99.90
25410;DHT22;13339;50.840;4.346;2023-03-01T15:35:53;8.40;99.90
25410;DHT22;13339;50.840;4.346;2023-03-01T15:40:57;8.60;99.90
25410;DHT22;13339;50.840;4.346;2023-03-01T15:43:46;8.60;99.90
25410;DHT22;13339;50.840;4.346;2023-03-01T15:46:25;8.40;99.90
25410;DHT22;13339;50.840;4.346;2023-03-01T15:48:57;8.30;99.90
25410;DHT22;13339;50.840;4.346;2023-03-01T15:51:35;8.40;99.90
25410;DHT22;13339;50.840;4.346;2023-03-01T15:54:09;8.50;99.90
25410;DHT22;13339;50.840;4.346;2023-03-01T15:56:36;8.20;99.90
25410;DHT22;13339;50.840;4.346;2023-03-01T15:59:02;8.20;99.90
25410;DHT22;13339;50.840;4.346;2023-03-01T16:01:28;8.40;99.90
25410;DHT22;13339;50.840;4.346;2023-03-01T16:03:54;8.40;99.90
25410;DHT22;13339;50.840;4.346;2023-03-01T16:06:20;8.30;99.90
25410;DHT22;13339;50.840;4.346;2023-03-01T16:08:46;8.30;99.90
25410;DHT22;13339;50.840;4.346;2023-03-01T16:11:17;8.20;99.90
25410;DHT22;13339;50.840;4.346;2023-03-01T16:13:43;8.00;99.90
25410;DHT22;13339;50.840;4.346;2023-03-01T16:16:11;8.10;99.90
25410;DHT22;13339;50.840;4.346;2023-03-01T16:18:40;8.20;99.90
25410;DHT22;13339;50.840;4.346;2023-03-01T16:21:06;8.20;99.90
25410;DHT22;13339;50.840;4.346;2023-03-01T16:23:31;8.40;99.90
25410;DHT22;13339;50.840;4.346;2023-03-01T16:26:01;8.40;99.90
25410;DHT22;13339;50.840;4.346;2023-03-01T16:28:26;8.20;99.90
25410;DHT22;13339;50.840;4.346;2023-03-01T16:30:52;8.10;99.90
25410;DHT22;13339;50.840;4.346;2023-03-01T16:33:17;8.20;99.90
25410;DHT22;13339;50.840;4.346;2023-03-01T16:35:43;8.30;99.90
25410;DHT22;13339;50.840;4.346;2023-03-01T16:38:10;8.30;99.90
25410;DHT22;13339;50.840;4.346;2023-03-01T16:40:35;8.40;99.90
25410;DHT22;13339;50.840;4.346;2023-03-01T16:43:01;8.40;99.90
25410;DHT22;13339;50.840;4.346;2023-03-01T16:45:35;8.30;99.90
25410;DHT22;13339;50.840;4.346;2023-03-01T16:48:02;8.10;99.90
25410;DHT22;13339;50.840;4.346;2023-03-01T16:50:28;8.20;99.90
25410;DHT22;13339;50.840;4.346;2023-03-01T16:52:54;8.30;99.90
25410;DHT22;13339;50.840;4.346;2023-03-01T16:55:19;8.40;99.90
25410;DHT22;13339;50.840;4.346;2023-03-01T16:57:45;8.30;99.90
25410;DHT22;13339;50.840;4.346;2023-03-01T17:00:12;8.30;99.90
25410;DHT22;13339;50.840;4.346;2023-03-01T17:02:39;8.00;99.90
25410;DHT22;13339;50.840;4.346;2023-03-01T17:05:07;8.00;99.90
25410;DHT22;13339;50.840;4.346;2023-03-01T17:07:33;8.00;99.90
25410;DHT22;13339;50.840;4.346;2023-03-01T17:10:00;7.90;99.90
25410;DHT22;13339;50.840;4.346;2023-03-01T17:12:26;7.90;99.90
25410;DHT22;13339;50.840;4.346;2023-03-01T17:14:52;7.90;99.90
25410;DHT22;13339;50.840;4.346;2023-03-01T17:17:19;7.90;99.90
25410;DHT22;13339;50.840;4.346;2023-03-01T17:19:45;8.00;99.90
25410;DHT22;13339;50.840;4.346;2023-03-01T17:22:11;8.00;99.90
25410;DHT22;13339;50.840;4.346;2023-03-01T17:24:39;8.00;99.90
25410;DHT22;13339;50.840;4.346;2023-03-01T17:27:06;8.20;99.90
25410;DHT22;13339;50.840;4.346;2023-03-01T17:29:32;8.30;99.90
25410;DHT22;13339;50.840;4.346;2023-03-01T17:31:58;8.20;99.90
25410;DHT22;13339;50.840;4.346;2023-03-01T17:34:24;8.10;99.90
25410;DHT22;13339;50.840;4.346;2023-03-01T17:36:50;8.30;99.90
25410;DHT22;13339;50.840;4.346;2023-03-01T17:39:17;8.40;99.90
25410;DHT22;13339;50.840;4.346;2023-03-01T17:41:45;8.40;99.90
25410;DHT22;13339;50.840;4.346;2023-03-01T17:44:11;8.30;99.90
25410;DHT22;13339;50.840;4.346;2023-03-01T17:46:37;8.40;99.90